Ransom Canyon, Texas
Current Conditions -  °F | °C
As of 11:53 PM on Thursday 27 Nov 2014 (Local Time) from KLBB Reporting Station
Clear Clear  
Wind Chill: 42°   Ceiling: Unl
Heat Index: 48°   Visibility: 10mi
Dew Point: 28°   Wind: 14mph
Humidity: 46%   Direction: 220°SW
Pressure: 30.23"   Gusts: NA
Location:  33.53°N, 101.68°W
Report Text: KLBB 280553Z 22012KT 10SM CLR 09/M02 A3023 RMK AO2 SLP224 T00891022 10106 20067 401501022 58010
Loading
Personal Weather Stations






























Interactive Weather Map New forecast layout! Learn more

10-Day Weather Forecast

Advertisements
Track Severe Weather on mobile